Buoy 41560

sailwx.info

Track history (hours):
 
Tides and Currents Weather Stations Pressure Air Temp Water Temp Dewpoint Dewpoint Depression Visibility Wind Speed Wind Dir Waves Ship Positions

Drifting buoy 41560

Last reported at 2014-Oct-21 08:00 UTC. Time now 2014-Oct-21 10:19 UTC.
Position N 37°52' W 022°15'.

Barometer 1016.3 mb

Date/timePositionNaut miles runAvg speedWind from/ knotsBaromVisibWave heightAir tempDewpointWater temp
2014-Oct-21 08:00N 37°52' W 022°15'1 0.8 1016.3
2014-Oct-21 07:00N 37°51' W 022°14'1 1.1 1015.4
2014-Oct-21 06:00N 37°51' W 022°15'2 2.1 1014.9
2014-Oct-21 05:00N 37°50' W 022°13'3 0.9 1014.5
2014-Oct-21 02:00N 37°49' W 022°11'1 0.3 1014.0
2014-Oct-20 23:00N 37°49' W 022°10'1 1.0 1013.5
2014-Oct-20 22:00N 37°49' W 022°08'1 0.6 1013.0
2014-Oct-20 21:00N 37°49' W 022°08'0 0.2 1012.4
2014-Oct-20 20:00N 37°50' W 022°08'1 1.1 1011.9
2014-Oct-20 19:00N 37°51' W 022°07'1 1.1 1011.0
2014-Oct-20 18:00N 37°52' W 022°07'0 0.0 1010.7
2014-Oct-20 17:00N 37°52' W 022°07'0 0.3 1010.2
2014-Oct-20 16:00N 37°52' W 022°07'0 0.3 1010.1
2014-Oct-20 15:00N 37°52' W 022°06'0 0.1 1010.2
2014-Oct-20 13:00N 37°52' W 022°07'1 1.0 1010.6
2014-Oct-20 12:00N 37°52' W 022°05'0 0.1 1010.8
2014-Oct-20 11:00N 37°52' W 022°05'0 0.0 1010.8
2014-Oct-20 10:00N 37°52' W 022°05'1 0.8 1010.8
2014-Oct-20 09:00N 37°51' W 022°05'1 0.7 1010.1
2014-Oct-20 07:00N 37°51' W 022°03'0 0.4 1008.7
2014-Oct-20 06:00N 37°51' W 022°03'1 1.5 1009.4
2014-Oct-20 05:00N 37°52' W 022°01'3 0.9 1008.9
2014-Oct-20 02:00N 37°54' W 021°59'0 0.2 1010.4
2014-Oct-20 00:00N 37°54' W 021°59'3 3.2 1011.6
2014-Oct-19 23:00N 37°55' W 021°55'0 0.0 1012.3
2014-Oct-19 22:00N 37°55' W 021°55'1 0.5 1012.8
2014-Oct-19 21:00N 37°55' W 021°55'2 2.5 1012.9
2014-Oct-19 20:00N 37°56' W 021°53'0 0.1 1013.3
2014-Oct-19 19:00N 37°56' W 021°53'1 1.3 1012.7
2014-Oct-19 18:00N 37°57' W 021°51'1 0.5 1012.8
2014-Oct-19 17:00N 37°58' W 021°51'1 0.7 1013.1
2014-Oct-19 16:00N 37°59' W 021°51'1 0.7 1013.6
2014-Oct-19 15:00N 37°59' W 021°50'1 0.6 1013.8
2014-Oct-19 14:00N 37°59' W 021°50'1 1.5 1014.4
2014-Oct-19 13:00N 38°00' W 021°49'0 0.5 1014.5
2014-Oct-19 12:00N 37°60' W 021°48'2 1.0 1015.6
2014-Oct-19 10:00N 38°01' W 021°46'1 0.3 1015.7
2014-Oct-19 07:00N 38°01' W 021°45'0 0.2 1014.4
2014-Oct-19 05:00N 38°02' W 021°45'1 0.7 1013.6
2014-Oct-19 04:00N 38°02' W 021°44'1 0.6 1013.9
2014-Oct-19 02:00N 38°03' W 021°45'0 0.0 1014.0
2014-Oct-19 01:00N 38°03' W 021°45'2 0.8 1013.8
2014-Oct-18 23:00N 38°03' W 021°43'0 0.4 1013.6
2014-Oct-18 22:00N 38°03' W 021°43'0 0.3 1013.3
2014-Oct-18 21:00N 38°03' W 021°44'0 0.2 1012.7
2014-Oct-18 19:00N 38°03' W 021°43'0 0.1 1011.6
2014-Oct-18 18:00N 38°03' W 021°43'0 0.3 1010.9
2014-Oct-18 17:00N 38°03' W 021°43'0 0.4 1010.4
2014-Oct-18 16:00N 38°03' W 021°43'0 0.4 1010.1
2014-Oct-18 15:00N 38°03' W 021°43'0 0.1 1009.9
2014-Oct-18 14:00N 38°03' W 021°43'0 0.2 1010.0
2014-Oct-18 12:00N 38°03' W 021°42'0 0.4 1010.0
2014-Oct-18 11:00N 38°04' W 021°43'0 0.1 1009.8
2014-Oct-18 08:00N 38°03' W 021°43'1 0.7 1008.0
2014-Oct-18 07:00N 38°03' W 021°44'0 0.3 1007.8
2014-Oct-18 06:00N 38°03' W 021°43'0 0.3 1007.5
2014-Oct-18 05:00N 38°04' W 021°44'0 0.2 1007.1
2014-Oct-18 02:00N 38°03' W 021°44'0 0.0 1007.0
2014-Oct-17 23:00N 38°03' W 021°44'0 0.4 1007.2
2014-Oct-17 22:00N 38°03' W 021°44'1 0.3 1007.2
2014-Oct-17 20:00N 38°03' W 021°44'0 0.0 1006.4
2014-Oct-17 19:00N 38°03' W 021°44'1 0.6 1005.8
2014-Oct-17 18:00N 38°04' W 021°45'1 0.6 1005.4
2014-Oct-17 17:00N 38°03' W 021°46'0 0.5 1005.0
2014-Oct-17 16:00N 38°03' W 021°45'0 0.5 1004.9
2014-Oct-17 15:00N 38°03' W 021°46'0 0.0 1004.7
2014-Oct-17 14:00N 38°03' W 021°46'1 0.3 1004.6
2014-Oct-17 12:00N 38°04' W 021°46'2 0.9 1004.6
2014-Oct-17 10:00N 38°05' W 021°44'2 1.1 1003.7
2014-Oct-17 08:00N 38°04' W 021°47'1 0.6 1002.3
2014-Oct-17 07:00N 38°04' W 021°48'0 0.4 1002.2
2014-Oct-17 06:00N 38°04' W 021°48'1 0.6 1001.1
2014-Oct-17 04:00N 38°03' W 021°49'1 0.4 1001.5
2014-Oct-17 02:00N 38°04' W 021°50'1 0.3 1003.0
2014-Oct-16 23:00N 38°03' W 021°51'1 0.8 1005.1
2014-Oct-16 22:00N 38°04' W 021°52'0 0.4 1005.6
2014-Oct-16 21:00N 38°04' W 021°52'2 0.9 1006.0
2014-Oct-16 19:00N 38°04' W 021°54'0 0.0 1006.6
2014-Oct-16 18:00N 38°04' W 021°54'1 0.8 1006.6
2014-Oct-16 17:00N 38°04' W 021°55'0 0.0 1007.0
2014-Oct-16 12:00N 38°04' W 021°55'3 0.5 1008.2
2014-Oct-16 07:00N 38°06' W 021°53'1 0.4 1006.3
2014-Oct-16 04:00N 38°07' W 021°54'1 0.7 1006.2
2014-Oct-16 03:00N 38°08' W 021°55'1 0.2 1006.5
2014-Oct-15 22:00N 38°08' W 021°55'1 0.6 1008.0
2014-Oct-15 21:00N 38°08' W 021°56'0 0.1 1007.8
2014-Oct-15 18:00N 38°09' W 021°56'0 0.2 1006.6
2014-Oct-15 16:00N 38°08' W 021°56'1 0.4 1007.6
2014-Oct-15 14:00N 38°08' W 021°57'1 1.4 1008.2
2014-Oct-15 13:00N 38°09' W 021°56'0 0.0 1008.7
2014-Oct-15 12:00N 38°09' W 021°56'1 0.7 1008.7
2014-Oct-15 10:00N 38°09' W 021°54'3 1.3 1008.3
2014-Oct-15 08:00N 38°11' W 021°55'0 0.4 1007.6
2014-Oct-15 07:00N 38°12' W 021°55'1 0.8 1007.2
2014-Oct-15 06:00N 38°12' W 021°56'1 1.3 1007.4
2014-Oct-15 05:00N 38°12' W 021°57'0 0.2 1007.2
2014-Oct-15 04:00N 38°12' W 021°57'1 0.6 1006.8
2014-Oct-15 03:00N 38°12' W 021°58'1 0.7 1007.1
2014-Oct-15 02:00N 38°11' W 021°58'0 0.0 1007.5
2014-Oct-15 00:00N 38°11' W 021°58'0 0.1 1008.1
2014-Oct-14 23:00N 38°11' W 021°58'2 0.6 1007.7
2014-Oct-14 20:00N 38°12' W 021°56'0 0.0 1007.1
2014-Oct-14 18:00N 38°12' W 021°56'0 0.5 1006.3
2014-Oct-14 17:00N 38°12' W 021°55'0 0.5 1006.7
2014-Oct-14 16:00N 38°13' W 021°55'2 0.5 1006.7
2014-Oct-14 12:00N 38°13' W 021°57'0 0.5 1007.6
2014-Oct-14 11:00N 38°14' W 021°58'1 1.1 1007.8
2014-Oct-14 10:00N 38°14' W 021°59'2 0.7 1007.5
2014-Oct-14 07:00N 38°13' W 022°01'0 0.0 1007.5
2014-Oct-14 06:00N 38°13' W 022°01'1 0.9 1007.8
2014-Oct-14 05:00N 38°13' W 022°02'1 0.5 1008.0
2014-Oct-14 03:00N 38°11' W 022°02'2 0.5 1009.0
2014-Oct-13 23:00N 38°10' W 021°60'2 1.9 1011.4
2014-Oct-13 22:00N 38°12' W 021°58'1 0.8 1011.8
2014-Oct-13 21:00N 38°11' W 021°57'2 0.8 1012.0
2014-Oct-13 18:00N 38°13' W 021°59'0 0.2 1012.4
2014-Oct-13 17:00N 38°13' W 021°59'1 0.9 1012.5
2014-Oct-13 16:00N 38°14' W 021°60'1 0.7 1012.8
2014-Oct-13 15:00N 38°13' W 022°00'1 0.4 1013.4
2014-Oct-13 13:00N 38°13' W 022°01'1 1.1 1014.2
2014-Oct-13 12:00N 38°12' W 022°01'0 0.0 1014.6
2014-Oct-13 11:00N 38°12' W 022°01'2 0.6 1015.1
2014-Oct-13 08:00N 38°11' W 021°59'1 0.6 1014.2
2014-Oct-13 07:00N 38°11' W 021°58'1 0.6 1014.1
2014-Oct-13 06:00N 38°11' W 021°57'1 1.4 1013.8
2014-Oct-13 05:00N 38°11' W 021°56'1 0.5 1013.7
2014-Oct-13 03:00N 38°12' W 021°57'3 0.7 1014.3
2014-Oct-12 23:00N 38°15' W 021°56'1 1.1 1014.2
2014-Oct-12 22:00N 38°16' W 021°56'2 1.8 1014.1
2014-Oct-12 21:00N 38°17' W 021°58'0 0.0 1014.4
2014-Oct-12 20:00N 38°17' W 021°58'0 0.0 1015.2
2014-Oct-12 19:00N 38°17' W 021°58'0 0.4 1015.4
2014-Oct-12 18:00N 38°17' W 021°58'0 0.0 1015.5
2014-Oct-12 17:00N 38°17' W 021°58'1 0.7 1016.4
2014-Oct-12 16:00N 38°17' W 021°59'0 0.2 1016.8
2014-Oct-12 15:00N 38°17' W 021°59'1 1.1 1017.6
2014-Oct-12 14:00N 38°17' W 022°00'0 0.4 1018.6
2014-Oct-12 13:00N 38°16' W 022°00'1 0.4 1019.4
2014-Oct-12 11:00N 38°16' W 021°59'1 1.3 1020.6
2014-Oct-12 10:00N 38°17' W 021°58'1 0.2 1020.5
2014-Oct-12 07:00N 38°17' W 021°57'2 0.8 1019.7
2014-Oct-12 05:00N 38°18' W 021°56'0 0.0 1019.7
2014-Oct-12 04:00N 38°18' W 021°56'1 0.9 1019.7
2014-Oct-12 03:00N 38°19' W 021°55'0 0.0 1020.2
2014-Oct-12 02:00N 38°19' W 021°55'1 0.4 1020.4
2014-Oct-11 23:00N 38°20' W 021°56'0 0.5 1021.1
2014-Oct-11 22:00N 38°20' W 021°56'1 0.8 1020.9
2014-Oct-11 21:00N 38°21' W 021°56'0 0.0 1020.6
2014-Oct-11 20:00N 38°21' W 021°56'0 0.0 1020.1
2014-Oct-11 19:00N 38°21' W 021°56'1 0.9 1019.9
2014-Oct-11 18:00N 38°20' W 021°55'1 0.5 1019.4
2014-Oct-11 17:00N 38°20' W 021°55'1 0.6 1019.3
2014-Oct-11 16:00N 38°20' W 021°55'1 0.5 1019.3
2014-Oct-11 15:00N 38°20' W 021°54'1 0.5 1019.0
2014-Oct-11 13:00N 38°21' W 021°53'1 1.2 1019.7
2014-Oct-11 12:00N 38°21' W 021°51'1 1.2 1019.8
2014-Oct-11 11:00N 38°21' W 021°53'2 1.6 1019.5
2014-Oct-11 10:00N 38°22' W 021°51'1 0.7 1019.5
2014-Oct-11 08:00N 38°23' W 021°50'   1018.8
Track history (hours):
 
Tides and Currents Weather Stations Pressure Air Temp Water Temp Dewpoint Dewpoint Depression Visibility Wind Speed Wind Dir Waves Ship Positions

Drifting buoy 41560

Last reported at 2014-Oct-21 08:00 UTC. Time now 2014-Oct-21 10:19 UTC.
Position N 37°52' W 022°15'.

Barometer 1016.3 mb

Date/timePositionNaut miles runAvg speedWind from/ knotsBaromVisibWave heightAir tempDewpointWater temp
2014-Oct-21 08:00N 37°52' W 022°15'1 0.8 1016.3
2014-Oct-21 07:00N 37°51' W 022°14'1 1.1 1015.4
2014-Oct-21 06:00N 37°51' W 022°15'2 2.1 1014.9
2014-Oct-21 05:00N 37°50' W 022°13'3 0.9 1014.5
2014-Oct-21 02:00N 37°49' W 022°11'1 0.3 1014.0
2014-Oct-20 23:00N 37°49' W 022°10'1 1.0 1013.5
2014-Oct-20 22:00N 37°49' W 022°08'1 0.6 1013.0
2014-Oct-20 21:00N 37°49' W 022°08'0 0.2 1012.4
2014-Oct-20 20:00N 37°50' W 022°08'1 1.1 1011.9
2014-Oct-20 19:00N 37°51' W 022°07'1 1.1 1011.0
2014-Oct-20 18:00N 37°52' W 022°07'0 0.0 1010.7
2014-Oct-20 17:00N 37°52' W 022°07'0 0.3 1010.2
2014-Oct-20 16:00N 37°52' W 022°07'0 0.3 1010.1
2014-Oct-20 15:00N 37°52' W 022°06'0 0.1 1010.2
2014-Oct-20 13:00N 37°52' W 022°07'1 1.0 1010.6
2014-Oct-20 12:00N 37°52' W 022°05'0 0.1 1010.8
2014-Oct-20 11:00N 37°52' W 022°05'0 0.0 1010.8
2014-Oct-20 10:00N 37°52' W 022°05'1 0.8 1010.8
2014-Oct-20 09:00N 37°51' W 022°05'1 0.7 1010.1
2014-Oct-20 07:00N 37°51' W 022°03'0 0.4 1008.7
2014-Oct-20 06:00N 37°51' W 022°03'1 1.5 1009.4
2014-Oct-20 05:00N 37°52' W 022°01'3 0.9 1008.9
2014-Oct-20 02:00N 37°54' W 021°59'0 0.2 1010.4
2014-Oct-20 00:00N 37°54' W 021°59'3 3.2 1011.6
2014-Oct-19 23:00N 37°55' W 021°55'0 0.0 1012.3
2014-Oct-19 22:00N 37°55' W 021°55'1 0.5 1012.8
2014-Oct-19 21:00N 37°55' W 021°55'2 2.5 1012.9
2014-Oct-19 20:00N 37°56' W 021°53'0 0.1 1013.3
2014-Oct-19 19:00N 37°56' W 021°53'1 1.3 1012.7
2014-Oct-19 18:00N 37°57' W 021°51'1 0.5 1012.8
2014-Oct-19 17:00N 37°58' W 021°51'1 0.7 1013.1
2014-Oct-19 16:00N 37°59' W 021°51'1 0.7 1013.6
2014-Oct-19 15:00N 37°59' W 021°50'1 0.6 1013.8
2014-Oct-19 14:00N 37°59' W 021°50'1 1.5 1014.4
2014-Oct-19 13:00N 38°00' W 021°49'0 0.5 1014.5
2014-Oct-19 12:00N 37°60' W 021°48'2 1.0 1015.6
2014-Oct-19 10:00N 38°01' W 021°46'1 0.3 1015.7
2014-Oct-19 07:00N 38°01' W 021°45'0 0.2 1014.4
2014-Oct-19 05:00N 38°02' W 021°45'1 0.7 1013.6
2014-Oct-19 04:00N 38°02' W 021°44'1 0.6 1013.9
2014-Oct-19 02:00N 38°03' W 021°45'0 0.0 1014.0
2014-Oct-19 01:00N 38°03' W 021°45'2 0.8 1013.8
2014-Oct-18 23:00N 38°03' W 021°43'0 0.4 1013.6
2014-Oct-18 22:00N 38°03' W 021°43'0 0.3 1013.3
2014-Oct-18 21:00N 38°03' W 021°44'0 0.2 1012.7
2014-Oct-18 19:00N 38°03' W 021°43'0 0.1 1011.6
2014-Oct-18 18:00N 38°03' W 021°43'0 0.3 1010.9
2014-Oct-18 17:00N 38°03' W 021°43'0 0.4 1010.4
2014-Oct-18 16:00N 38°03' W 021°43'0 0.4 1010.1
2014-Oct-18 15:00N 38°03' W 021°43'0 0.1 1009.9
2014-Oct-18 14:00N 38°03' W 021°43'0 0.2 1010.0
2014-Oct-18 12:00N 38°03' W 021°42'0 0.4 1010.0
2014-Oct-18 11:00N 38°04' W 021°43'0 0.1 1009.8
2014-Oct-18 08:00N 38°03' W 021°43'1 0.7 1008.0
2014-Oct-18 07:00N 38°03' W 021°44'0 0.3 1007.8
2014-Oct-18 06:00N 38°03' W 021°43'0 0.3 1007.5
2014-Oct-18 05:00N 38°04' W 021°44'0 0.2 1007.1
2014-Oct-18 02:00N 38°03' W 021°44'0 0.0 1007.0
2014-Oct-17 23:00N 38°03' W 021°44'0 0.4 1007.2
2014-Oct-17 22:00N 38°03' W 021°44'1 0.3 1007.2
2014-Oct-17 20:00N 38°03' W 021°44'0 0.0 1006.4
2014-Oct-17 19:00N 38°03' W 021°44'1 0.6 1005.8
2014-Oct-17 18:00N 38°04' W 021°45'1 0.6 1005.4
2014-Oct-17 17:00N 38°03' W 021°46'0 0.5 1005.0
2014-Oct-17 16:00N 38°03' W 021°45'0 0.5 1004.9
2014-Oct-17 15:00N 38°03' W 021°46'0 0.0 1004.7
2014-Oct-17 14:00N 38°03' W 021°46'1 0.3 1004.6
2014-Oct-17 12:00N 38°04' W 021°46'2 0.9 1004.6
2014-Oct-17 10:00N 38°05' W 021°44'2 1.1 1003.7
2014-Oct-17 08:00N 38°04' W 021°47'1 0.6 1002.3
2014-Oct-17 07:00N 38°04' W 021°48'0 0.4 1002.2
2014-Oct-17 06:00N 38°04' W 021°48'1 0.6 1001.1
2014-Oct-17 04:00N 38°03' W 021°49'1 0.4 1001.5
2014-Oct-17 02:00N 38°04' W 021°50'1 0.3 1003.0
2014-Oct-16 23:00N 38°03' W 021°51'1 0.8 1005.1
2014-Oct-16 22:00N 38°04' W 021°52'0 0.4 1005.6
2014-Oct-16 21:00N 38°04' W 021°52'2 0.9 1006.0
2014-Oct-16 19:00N 38°04' W 021°54'0 0.0 1006.6
2014-Oct-16 18:00N 38°04' W 021°54'1 0.8 1006.6
2014-Oct-16 17:00N 38°04' W 021°55'0 0.0 1007.0
2014-Oct-16 12:00N 38°04' W 021°55'3 0.5 1008.2
2014-Oct-16 07:00N 38°06' W 021°53'1 0.4 1006.3
2014-Oct-16 04:00N 38°07' W 021°54'1 0.7 1006.2
2014-Oct-16 03:00N 38°08' W 021°55'1 0.2 1006.5
2014-Oct-15 22:00N 38°08' W 021°55'1 0.6 1008.0
2014-Oct-15 21:00N 38°08' W 021°56'0 0.1 1007.8
2014-Oct-15 18:00N 38°09' W 021°56'0 0.2 1006.6
2014-Oct-15 16:00N 38°08' W 021°56'1 0.4 1007.6
2014-Oct-15 14:00N 38°08' W 021°57'1 1.4 1008.2
2014-Oct-15 13:00N 38°09' W 021°56'0 0.0 1008.7
2014-Oct-15 12:00N 38°09' W 021°56'1 0.7 1008.7
2014-Oct-15 10:00N 38°09' W 021°54'3 1.3 1008.3
2014-Oct-15 08:00N 38°11' W 021°55'0 0.4 1007.6
2014-Oct-15 07:00N 38°12' W 021°55'1 0.8 1007.2
2014-Oct-15 06:00N 38°12' W 021°56'1 1.3 1007.4
2014-Oct-15 05:00N 38°12' W 021°57'0 0.2 1007.2
2014-Oct-15 04:00N 38°12' W 021°57'1 0.6 1006.8
2014-Oct-15 03:00N 38°12' W 021°58'1 0.7 1007.1
2014-Oct-15 02:00N 38°11' W 021°58'0 0.0 1007.5
2014-Oct-15 00:00N 38°11' W 021°58'0 0.1 1008.1
2014-Oct-14 23:00N 38°11' W 021°58'2 0.6 1007.7
2014-Oct-14 20:00N 38°12' W 021°56'0 0.0 1007.1
2014-Oct-14 18:00N 38°12' W 021°56'0 0.5 1006.3
2014-Oct-14 17:00N 38°12' W 021°55'0 0.5 1006.7
2014-Oct-14 16:00N 38°13' W 021°55'2 0.5 1006.7
2014-Oct-14 12:00N 38°13' W 021°57'0 0.5 1007.6
2014-Oct-14 11:00N 38°14' W 021°58'1 1.1 1007.8
2014-Oct-14 10:00N 38°14' W 021°59'2 0.7 1007.5
2014-Oct-14 07:00N 38°13' W 022°01'0 0.0 1007.5
2014-Oct-14 06:00N 38°13' W 022°01'1 0.9 1007.8
2014-Oct-14 05:00N 38°13' W 022°02'1 0.5 1008.0
2014-Oct-14 03:00N 38°11' W 022°02'2 0.5 1009.0
2014-Oct-13 23:00N 38°10' W 021°60'2 1.9 1011.4
2014-Oct-13 22:00N 38°12' W 021°58'1 0.8 1011.8
2014-Oct-13 21:00N 38°11' W 021°57'2 0.8 1012.0
2014-Oct-13 18:00N 38°13' W 021°59'0 0.2 1012.4
2014-Oct-13 17:00N 38°13' W 021°59'1 0.9 1012.5
2014-Oct-13 16:00N 38°14' W 021°60'1 0.7 1012.8
2014-Oct-13 15:00N 38°13' W 022°00'1 0.4 1013.4
2014-Oct-13 13:00N 38°13' W 022°01'1 1.1 1014.2
2014-Oct-13 12:00N 38°12' W 022°01'0 0.0 1014.6
2014-Oct-13 11:00N 38°12' W 022°01'2 0.6 1015.1
2014-Oct-13 08:00N 38°11' W 021°59'1 0.6 1014.2
2014-Oct-13 07:00N 38°11' W 021°58'1 0.6 1014.1
2014-Oct-13 06:00N 38°11' W 021°57'1 1.4 1013.8
2014-Oct-13 05:00N 38°11' W 021°56'1 0.5 1013.7
2014-Oct-13 03:00N 38°12' W 021°57'3 0.7 1014.3
2014-Oct-12 23:00N 38°15' W 021°56'1 1.1 1014.2
2014-Oct-12 22:00N 38°16' W 021°56'2 1.8 1014.1
2014-Oct-12 21:00N 38°17' W 021°58'0 0.0 1014.4
2014-Oct-12 20:00N 38°17' W 021°58'0 0.0 1015.2
2014-Oct-12 19:00N 38°17' W 021°58'0 0.4 1015.4
2014-Oct-12 18:00N 38°17' W 021°58'0 0.0 1015.5
2014-Oct-12 17:00N 38°17' W 021°58'1 0.7 1016.4
2014-Oct-12 16:00N 38°17' W 021°59'0 0.2 1016.8
2014-Oct-12 15:00N 38°17' W 021°59'1 1.1 1017.6
2014-Oct-12 14:00N 38°17' W 022°00'0 0.4 1018.6
2014-Oct-12 13:00N 38°16' W 022°00'1 0.4 1019.4
2014-Oct-12 11:00N 38°16' W 021°59'1 1.3 1020.6
2014-Oct-12 10:00N 38°17' W 021°58'1 0.2 1020.5
2014-Oct-12 07:00N 38°17' W 021°57'2 0.8 1019.7
2014-Oct-12 05:00N 38°18' W 021°56'0 0.0 1019.7
2014-Oct-12 04:00N 38°18' W 021°56'1 0.9 1019.7
2014-Oct-12 03:00N 38°19' W 021°55'0 0.0 1020.2
2014-Oct-12 02:00N 38°19' W 021°55'1 0.4 1020.4
2014-Oct-11 23:00N 38°20' W 021°56'0 0.5 1021.1
2014-Oct-11 22:00N 38°20' W 021°56'1 0.8 1020.9
2014-Oct-11 21:00N 38°21' W 021°56'0 0.0 1020.6
2014-Oct-11 20:00N 38°21' W 021°56'0 0.0 1020.1
2014-Oct-11 19:00N 38°21' W 021°56'1 0.9 1019.9
2014-Oct-11 18:00N 38°20' W 021°55'1 0.5 1019.4
2014-Oct-11 17:00N 38°20' W 021°55'1 0.6 1019.3
2014-Oct-11 16:00N 38°20' W 021°55'1 0.5 1019.3
2014-Oct-11 15:00N 38°20' W 021°54'1 0.5 1019.0
2014-Oct-11 13:00N 38°21' W 021°53'1 1.2 1019.7
2014-Oct-11 12:00N 38°21' W 021°51'1 1.2 1019.8
2014-Oct-11 11:00N 38°21' W 021°53'2 1.6 1019.5
2014-Oct-11 10:00N 38°22' W 021°51'1 0.7 1019.5
2014-Oct-11 08:00N 38°23' W 021°50'   1018.8

Dump ship's entire track history